首页
METAR-TAF:

METAR-TAF

机场 :

Little Rock National Airport (Adams Field)

小岩城, 阿肯色州, 美国

纬度: 34-43-36N, 经度: 092-14-10W, 海拔: 79米

当前天气观测

该预报发布于2小时和1分钟前的02:53 UTC
风速8节,风向西
温度 15°C
湿度 63%
气压 1006 hPa
能見度: 16.1公里
天空无云

METAR: KLIT 260253Z 26008KT 10SM CLR 15/08 A2971 RMK AO2 SLP060 T01500078 51039

时间: 22:54 (04:54 UTC)

预报

该预报发布于3小时和54分钟前的01:00 UTC
预报有效从26日的 01点(UTC)到 26日的 24点(UTC)
风速8节,风向西转西南,有时为18节阵风
能見度: 10公里
少量云层高于6000英尺
散云层高于20000英尺
从 26日的 0400点(UTC)
风速7节,风向西转西南
能見度: 10公里
天空无云

TAF: KLIT 260100Z 2601/2624 24008G18KT P6SM FEW060 SCT200 FM260400 25007KT P6SM SKC

超过4000个机场的气象观测和天气预报(METAR&TAF报告)。

可查询的气象台以黄色和红色小点在地图上表示。

将鼠标移到小点上方,可查看气象台名称。

然后点击查看天气观测和预报。

如需切换地图:点击带黑十字的绿色按钮放大地图;点击带横线的绿色按钮缩小地图;或者点击绿色箭头查看邻近地区的地图。


METAR-TAF: